createdAt,value
2023-03-11T00:01:05.790Z,99.9
2023-03-11T00:03:07.614Z,99.9
2023-03-11T00:05:09.499Z,99.9
2023-03-11T00:07:11.272Z,99.9
2023-03-11T00:09:13.082Z,99.9
2023-03-11T00:11:14.962Z,99.9
2023-03-11T00:13:19.958Z,99.9
2023-03-11T00:15:21.797Z,99.9
2023-03-11T00:17:23.667Z,99.9
2023-03-11T00:19:25.490Z,99.9
2023-03-11T00:21:27.345Z,99.9
2023-03-11T00:23:29.172Z,99.9
2023-03-11T00:25:31.000Z,99.9
2023-03-11T00:27:36.036Z,99.9
2023-03-11T00:29:37.866Z,99.9
2023-03-11T00:31:39.706Z,99.9
2023-03-11T00:33:41.511Z,99.9
2023-03-11T00:35:43.416Z,99.9
2023-03-11T00:37:45.131Z,99.9
2023-03-11T00:39:46.968Z,99.9
2023-03-11T00:41:52.020Z,99.9
2023-03-11T00:43:53.872Z,99.9
2023-03-11T00:48:24.538Z,99.9
2023-03-11T00:50:26.338Z,99.9
2023-03-11T00:56:35.019Z,99.9
2023-03-11T00:58:36.857Z,99.9
2023-03-11T01:02:40.523Z,99.9
2023-03-11T01:04:42.430Z,99.9
2023-03-11T01:06:45.505Z,99.9
2023-03-11T01:10:51.030Z,99.9
2023-03-11T01:12:52.866Z,99.9
2023-03-11T01:14:54.682Z,99.9
2023-03-11T01:16:56.534Z,99.9
2023-03-11T01:18:58.397Z,99.9
2023-03-11T01:21:00.198Z,99.9
2023-03-11T01:23:05.235Z,99.9
2023-03-11T01:25:07.088Z,99.9
2023-03-11T01:27:08.901Z,99.9
2023-03-11T01:29:10.708Z,99.9
2023-03-11T01:31:12.680Z,99.9
2023-03-11T01:33:14.393Z,99.9
2023-03-11T01:35:16.196Z,99.9
2023-03-11T01:37:21.260Z,99.9
2023-03-11T01:42:27.400Z,99.9
2023-03-11T01:44:29.210Z,99.9
2023-03-11T01:46:31.130Z,99.9
2023-03-11T01:48:32.863Z,99.9
2023-03-11T01:50:37.920Z,99.9
2023-03-11T01:52:39.735Z,99.9
2023-03-11T01:54:41.553Z,99.9
2023-03-11T01:56:43.390Z,99.9
2023-03-11T01:58:45.204Z,99.9
2023-03-11T02:00:47.100Z,99.9
2023-03-11T02:02:48.887Z,99.9
2023-03-11T02:04:53.880Z,99.9
2023-03-11T02:06:55.703Z,99.9
2023-03-11T02:15:02.948Z,99.9
2023-03-11T02:17:04.777Z,99.9
2023-03-11T02:21:11.598Z,99.9
2023-03-11T02:23:13.426Z,99.9
2023-03-11T02:31:20.663Z,99.9
2023-03-11T02:38:31.829Z,99.9
2023-03-11T02:40:33.672Z,99.9
2023-03-11T02:42:35.489Z,99.9
2023-03-11T02:44:37.330Z,99.9
2023-03-11T02:46:42.411Z,99.9
2023-03-11T02:48:44.167Z,99.9
2023-03-11T02:50:45.995Z,99.9
2023-03-11T02:52:47.799Z,99.9
2023-03-11T02:56:51.400Z,99.9
2023-03-11T03:00:58.259Z,99.9
2023-03-11T03:03:00.118Z,99.9
2023-03-11T03:05:01.878Z,99.9
2023-03-11T03:07:03.724Z,99.9
2023-03-11T03:15:14.137Z,99.9
2023-03-11T03:17:16.025Z,99.9
2023-03-11T03:19:17.837Z,99.9
2023-03-11T03:23:21.428Z,99.9
2023-03-11T03:25:23.201Z,99.9
2023-03-11T03:29:30.070Z,99.9
2023-03-11T03:31:31.915Z,99.9
2023-03-11T03:40:41.631Z,99.9
2023-03-11T03:44:49.994Z,99.9
2023-03-11T03:46:51.793Z,99.9
2023-03-11T03:48:53.607Z,99.9
2023-03-11T03:50:55.412Z,99.9
2023-03-11T03:52:57.210Z,99.9
2023-03-11T03:54:59.021Z,99.9
2023-03-11T03:57:04.058Z,99.9
2023-03-11T03:59:05.861Z,99.9
2023-03-11T04:01:07.674Z,99.9
2023-03-11T04:03:09.495Z,99.9
2023-03-11T04:05:11.251Z,99.9
2023-03-11T04:07:13.043Z,99.9
2023-03-11T04:09:14.830Z,99.9
2023-03-11T04:11:19.860Z,99.9
2023-03-11T04:13:21.643Z,99.9
2023-03-11T04:15:23.472Z,99.9
2023-03-11T04:17:25.282Z,99.9
2023-03-11T04:19:27.066Z,99.9
2023-03-11T04:21:28.847Z,99.9
2023-03-11T04:23:30.648Z,99.9
2023-03-11T04:25:35.699Z,99.9
2023-03-11T04:27:37.463Z,99.9
2023-03-11T04:29:39.248Z,99.9
2023-03-11T04:32:08.157Z,99.9
2023-03-11T04:34:09.960Z,99.9
2023-03-11T04:36:11.738Z,99.9
2023-03-11T04:38:16.778Z,99.9
2023-03-11T04:40:18.581Z,99.9
2023-03-11T04:42:20.375Z,99.9
2023-03-11T04:44:22.198Z,99.9
2023-03-11T04:46:24.008Z,99.9
2023-03-11T04:48:25.744Z,99.9
2023-03-11T04:50:27.533Z,99.9
2023-03-11T04:52:32.556Z,99.9
2023-03-11T04:54:34.329Z,99.9
2023-03-11T04:56:36.136Z,99.9
2023-03-11T04:58:37.912Z,99.9
2023-03-11T05:00:39.712Z,99.9
2023-03-11T05:02:41.511Z,99.9
2023-03-11T05:04:43.365Z,99.9
2023-03-11T05:06:48.336Z,99.9
2023-03-11T05:08:50.107Z,99.9
2023-03-11T05:10:51.870Z,99.9
2023-03-11T05:12:53.698Z,99.9
2023-03-11T05:14:55.434Z,99.9
2023-03-11T05:16:57.256Z,99.9
2023-03-11T05:21:04.038Z,99.9
2023-03-11T05:25:07.624Z,99.9
2023-03-11T05:26:10.155Z,99.9
2023-03-11T05:28:11.892Z,99.9
2023-03-11T05:30:13.660Z,99.9
2023-03-11T05:34:20.487Z,99.9
2023-03-11T05:36:22.218Z,99.9
2023-03-11T05:42:27.574Z,99.9
2023-03-11T05:44:29.364Z,99.9
2023-03-11T05:46:31.184Z,99.9
2023-03-11T05:48:36.133Z,99.9
2023-03-11T05:50:37.916Z,99.9
2023-03-11T05:52:39.701Z,99.9
2023-03-11T05:54:41.453Z,99.9
2023-03-11T05:56:43.197Z,99.9
2023-03-11T05:58:44.970Z,99.9
2023-03-11T06:00:46.753Z,99.9
2023-03-11T06:02:51.749Z,99.9
2023-03-11T06:04:53.706Z,99.9
2023-03-11T06:06:55.282Z,99.9
2023-03-11T06:08:57.049Z,99.9
2023-03-11T06:10:58.804Z,99.9
2023-03-11T06:13:00.583Z,99.9
2023-03-11T06:15:02.391Z,99.9
2023-03-11T06:17:07.394Z,99.9
2023-03-11T06:19:09.137Z,99.9
2023-03-11T06:21:10.901Z,99.9
2023-03-11T06:38:30.831Z,99.9
2023-03-11T06:40:32.617Z,99.9
2023-03-11T06:46:41.132Z,99.9
2023-03-11T06:48:42.896Z,99.9
2023-03-11T06:52:46.471Z,99.9
2023-03-11T06:56:50.061Z,99.9
2023-03-11T06:58:55.117Z,99.9
2023-03-11T07:00:56.936Z,99.9
2023-03-11T07:02:58.785Z,99.9
2023-03-11T07:05:00.616Z,99.9
2023-03-11T07:07:02.470Z,99.9
2023-03-11T07:09:04.348Z,99.9
2023-03-11T07:11:06.204Z,99.9
2023-03-11T07:13:11.291Z,99.9
2023-03-11T07:15:13.187Z,99.9
2023-03-11T07:17:15.527Z,99.9
2023-03-11T07:24:23.404Z,99.9
2023-03-11T07:28:30.428Z,99.9
2023-03-11T07:30:32.307Z,99.9
2023-03-11T07:32:34.238Z,99.9
2023-03-11T07:34:36.137Z,99.9
2023-03-11T07:36:38.062Z,99.9
2023-03-11T07:38:41.753Z,99.9
2023-03-11T07:40:45.119Z,99.9
2023-03-11T07:42:47.037Z,99.9
2023-03-11T07:46:50.866Z,99.9
2023-03-11T07:48:52.766Z,99.9
2023-03-11T07:50:54.684Z,99.9
2023-03-11T07:52:56.552Z,99.9
2023-03-11T07:57:03.604Z,99.9
2023-03-11T07:59:05.510Z,99.9
2023-03-11T08:07:13.098Z,99.9
2023-03-11T08:11:20.074Z,99.9
2023-03-11T08:13:21.956Z,99.9
2023-03-11T08:15:50.854Z,99.9
2023-03-11T08:17:52.758Z,99.9
2023-03-11T08:19:54.640Z,99.9
2023-03-11T08:21:59.793Z,99.9
2023-03-11T08:24:01.656Z,99.9
2023-03-11T08:28:05.471Z,99.9
2023-03-11T08:34:11.176Z,99.9
2023-03-11T08:38:18.159Z,99.9
2023-03-11T08:40:20.126Z,99.9
2023-03-11T08:42:21.979Z,99.9
2023-03-11T08:48:27.800Z,99.9
2023-03-11T08:50:41.244Z,99.9
2023-03-11T08:52:34.891Z,99.9
2023-03-11T08:54:36.839Z,99.9
2023-03-11T08:58:40.772Z,99.9
2023-03-11T09:00:42.736Z,99.9
2023-03-11T09:02:44.709Z,99.9
2023-03-11T09:04:49.846Z,99.9
2023-03-11T09:06:51.888Z,99.9
2023-03-11T09:09:56.413Z,99.9
2023-03-11T09:11:58.364Z,99.9
2023-03-11T09:14:00.358Z,99.9
2023-03-11T09:16:02.379Z,99.9
2023-03-11T09:18:07.518Z,99.9
2023-03-11T09:20:09.482Z,99.9
2023-03-11T09:22:11.478Z,99.9
2023-03-11T09:24:13.464Z,99.9
2023-03-11T09:26:15.451Z,99.9
2023-03-11T09:28:17.431Z,99.9
2023-03-11T09:30:19.437Z,99.9
2023-03-11T09:32:26.243Z,99.9
2023-03-11T09:34:28.118Z,99.9
2023-03-11T09:36:30.172Z,99.9
2023-03-11T09:38:32.087Z,99.9
2023-03-11T09:40:34.089Z,99.9
2023-03-11T09:42:36.076Z,99.9
2023-03-11T09:46:43.349Z,99.9
2023-03-11T09:48:45.269Z,99.9
2023-03-11T09:50:47.263Z,99.9
2023-03-11T09:52:49.246Z,99.9
2023-03-11T09:54:51.137Z,99.9
2023-03-11T09:56:53.029Z,99.9
2023-03-11T10:00:59.934Z,99.9
2023-03-11T10:03:01.871Z,99.9
2023-03-11T10:05:03.654Z,99.9
2023-03-11T10:06:06.180Z,99.9
2023-03-11T10:08:08.047Z,99.9
2023-03-11T10:10:09.943Z,99.9
2023-03-11T10:12:11.800Z,99.9
2023-03-11T10:14:16.827Z,99.9
2023-03-11T10:16:18.698Z,99.9
2023-03-11T10:18:20.567Z,99.9
2023-03-11T10:20:22.524Z,99.9
2023-03-11T10:22:24.311Z,99.9
2023-03-11T10:24:26.160Z,99.9
2023-03-11T10:28:33.624Z,99.7
2023-03-11T10:30:35.464Z,99.7
2023-03-11T10:32:37.427Z,99.7
2023-03-11T10:34:39.217Z,99.7
2023-03-11T10:36:41.094Z,99.7
2023-03-11T10:38:42.992Z,99.7
2023-03-11T10:40:44.875Z,99.9
2023-03-11T10:42:50.097Z,99.9
2023-03-11T10:44:52.672Z,99.9
2023-03-11T10:46:53.930Z,99.9
2023-03-11T10:48:55.971Z,99.9
2023-03-11T10:52:59.876Z,99.9
2023-03-11T10:55:01.874Z,99.9
2023-03-11T10:57:07.048Z,99.9
2023-03-11T10:59:09.010Z,99.9
2023-03-11T11:01:11.043Z,99.9
2023-03-11T11:02:13.607Z,99.9
2023-03-11T11:04:15.566Z,99.9
2023-03-11T11:10:24.670Z,99.9
2023-03-11T11:16:30.655Z,99.9
2023-03-11T11:24:41.677Z,99.9
2023-03-11T11:28:45.576Z,99.9
2023-03-11T11:30:47.576Z,99.9
2023-03-11T11:32:49.528Z,99.9
2023-03-11T11:34:51.434Z,99.9
2023-03-11T11:36:53.418Z,99.8
2023-03-11T11:41:00.569Z,98.7
2023-03-11T11:43:02.520Z,98.3
2023-03-11T11:47:06.530Z,98.4
2023-03-11T11:51:10.335Z,96.6
2023-03-11T11:59:48.177Z,93.5
2023-03-11T12:01:50.160Z,93.2
2023-03-11T12:03:52.256Z,92.9
2023-03-11T12:05:58.212Z,93.1
2023-03-11T12:07:59.236Z,93.3
2023-03-11T12:10:12.894Z,94.1
2023-03-11T12:12:03.915Z,94
2023-03-11T12:14:05.799Z,82.2
2023-03-11T12:16:07.710Z,82.5
2023-03-11T12:18:09.670Z,82.6
2023-03-11T12:20:14.809Z,90.9
2023-03-11T12:22:16.771Z,91.4
2023-03-11T12:24:18.652Z,91.3
2023-03-11T12:26:20.536Z,91.2
2023-03-11T12:28:22.395Z,76.7
2023-03-11T12:34:31.139Z,83.3
2023-03-11T12:36:33.024Z,83.9
2023-03-11T12:38:34.895Z,93.7
2023-03-11T12:40:36.768Z,94.7
2023-03-11T12:44:40.535Z,73.2
2023-03-11T12:46:42.452Z,88.6
2023-03-11T12:50:49.321Z,88.3
2023-03-11T12:52:51.214Z,77.5
2023-03-11T12:53:53.723Z,69.6
2023-03-11T12:59:59.348Z,76.4
2023-03-11T13:02:04.394Z,71.9
2023-03-11T13:04:06.245Z,72.2
2023-03-11T13:06:08.101Z,72.2
2023-03-11T13:08:09.974Z,66
2023-03-11T13:10:11.949Z,66
2023-03-11T13:12:13.746Z,76.3
2023-03-11T13:14:15.607Z,68.9
2023-03-11T13:16:20.717Z,61.6
2023-03-11T13:18:22.502Z,68.3
2023-03-11T13:22:26.229Z,67.5
2023-03-11T13:26:29.999Z,61.7
2023-03-11T13:28:31.901Z,65.4
2023-03-11T13:30:36.900Z,64.8
2023-03-11T13:32:38.890Z,60.4
2023-03-11T13:34:40.658Z,60.3
2023-03-11T13:36:42.516Z,60.3
2023-03-11T13:38:44.381Z,54.7
2023-03-11T13:40:46.288Z,55.8
2023-03-11T13:42:48.131Z,57.9
2023-03-11T13:44:53.137Z,58.4
2023-03-11T13:46:55.031Z,58
2023-03-11T13:48:56.926Z,57.4
2023-03-11T13:52:01.311Z,57.1
2023-03-11T13:54:03.159Z,57.1
2023-03-11T13:56:05.037Z,51.7
2023-03-11T13:58:10.069Z,55.9
2023-03-11T14:02:13.824Z,59.1
2023-03-11T14:08:19.404Z,56.2
2023-03-11T14:10:21.309Z,56
2023-03-11T14:12:26.339Z,56
2023-03-11T14:14:28.196Z,56
2023-03-11T14:16:30.112Z,55.5
2023-03-11T14:18:31.926Z,55.5
2023-03-11T14:20:33.855Z,51.6
2023-03-11T14:22:35.649Z,51.7
2023-03-11T14:24:37.547Z,51.8
2023-03-11T14:28:45.206Z,52.1
2023-03-11T14:30:46.353Z,52.3
2023-03-11T14:34:50.136Z,50.5
2023-03-11T14:40:58.910Z,52.2
2023-03-11T14:43:00.793Z,52.3
2023-03-11T14:45:02.816Z,49.6
2023-03-11T14:46:05.384Z,50.2
2023-03-11T14:48:07.288Z,50
2023-03-11T14:50:09.201Z,49.5
2023-03-11T14:52:11.055Z,49.3
2023-03-11T14:58:20.198Z,48.9
2023-03-11T15:02:24.196Z,47
2023-03-11T15:04:26.150Z,45.8
2023-03-11T15:06:28.147Z,50.4
2023-03-11T15:08:33.382Z,42
2023-03-11T15:10:35.371Z,40.6
2023-03-11T15:12:37.347Z,45.9
2023-03-11T15:16:41.365Z,48.2
2023-03-11T15:18:43.290Z,48.5
2023-03-11T15:20:45.301Z,51.8
2023-03-11T15:22:50.480Z,54.3
2023-03-11T15:24:54.057Z,54.9
2023-03-11T15:26:55.993Z,55.4
2023-03-11T15:30:59.959Z,54.5
2023-03-11T15:33:01.904Z,54
2023-03-11T15:37:09.056Z,54.6
2023-03-11T15:39:11.059Z,54.1
2023-03-11T15:41:13.044Z,54.2
2023-03-11T15:43:41.872Z,53.7
2023-03-11T15:45:43.865Z,53.5
2023-03-11T15:49:50.980Z,51.4
2023-03-11T16:00:00.848Z,53.3
2023-03-11T16:02:02.748Z,52.6
2023-03-11T16:06:09.863Z,52.4
2023-03-11T16:08:11.835Z,51.9
2023-03-11T16:10:13.774Z,52.5
2023-03-11T16:12:15.755Z,56.1
2023-03-11T16:14:17.696Z,49.2
2023-03-11T16:18:24.826Z,55
2023-03-11T16:20:26.779Z,55.1
2023-03-11T16:22:28.775Z,54.6
2023-03-11T16:24:30.699Z,54
2023-03-11T16:26:32.627Z,53.8
2023-03-11T16:28:34.607Z,53.3
2023-03-11T16:30:36.559Z,52.8
2023-03-11T16:32:41.746Z,53.7
2023-03-11T16:34:43.689Z,55.1
2023-03-11T16:36:45.640Z,55.8
2023-03-11T16:54:07.031Z,57.5
2023-03-11T16:58:10.925Z,57.3
2023-03-11T17:04:20.000Z,56.8
2023-03-11T17:08:23.816Z,55.7
2023-03-11T17:12:27.688Z,55.5
2023-03-11T17:14:32.845Z,56.7
2023-03-11T17:18:36.753Z,57.5
2023-03-11T17:20:38.687Z,57.4
2023-03-11T17:22:40.590Z,57.3
2023-03-11T17:24:42.532Z,57.8
2023-03-11T17:26:44.462Z,58.2
2023-03-11T17:30:51.531Z,59.1
2023-03-11T17:32:53.491Z,59.5
2023-03-11T17:33:56.000Z,59.5
2023-03-11T17:37:59.841Z,59.6
2023-03-11T17:40:01.790Z,59.5
2023-03-11T17:42:06.926Z,59.3
2023-03-11T17:44:08.862Z,59
2023-03-11T17:46:10.798Z,59.4
2023-03-11T17:48:12.696Z,59.3
2023-03-11T17:56:23.544Z,65.9
2023-03-11T17:58:25.473Z,66.1
2023-03-11T18:04:31.207Z,66.1
2023-03-11T18:06:33.127Z,66.7
2023-03-11T18:10:40.176Z,69.2
2023-03-11T18:12:42.087Z,63.2
2023-03-11T18:14:43.986Z,71
2023-03-11T18:18:47.905Z,59.9
2023-03-11T18:22:51.588Z,83
2023-03-11T18:29:00.554Z,87.8
2023-03-11T18:30:03.105Z,88.5
2023-03-11T18:36:08.844Z,92.1
2023-03-11T18:38:13.982Z,94
2023-03-11T18:40:15.845Z,94.2
2023-03-11T18:42:17.781Z,95.3
2023-03-11T18:44:19.695Z,97.3
2023-03-11T18:46:21.746Z,98.4
2023-03-11T18:48:23.461Z,98.7
2023-03-11T18:50:25.321Z,99.2
2023-03-11T18:52:30.484Z,99.6
2023-03-11T18:54:32.394Z,99.9
2023-03-11T18:56:34.281Z,99.9
2023-03-11T18:58:36.185Z,99.9
2023-03-11T19:00:34.688Z,99.9
2023-03-11T19:06:41.083Z,99.9
2023-03-11T19:12:46.688Z,99.9
2023-03-11T19:14:48.577Z,99.9
2023-03-11T19:16:50.591Z,99.9
2023-03-11T19:18:52.340Z,99.9
2023-03-11T19:20:57.466Z,99.9
2023-03-11T19:22:59.340Z,99.9
2023-03-11T19:25:01.218Z,99.9
2023-03-11T19:27:30.083Z,99.9
2023-03-11T19:29:31.948Z,99.9
2023-03-11T19:31:33.848Z,99.9
2023-03-11T19:33:38.955Z,99.9
2023-03-11T19:35:40.898Z,99.9
2023-03-11T19:37:42.693Z,99.9
2023-03-11T19:39:44.610Z,99.9
2023-03-11T19:41:46.484Z,99.9
2023-03-11T19:43:48.341Z,99.9
2023-03-11T19:45:50.257Z,99.9
2023-03-11T19:47:55.299Z,99.9
2023-03-11T19:54:00.962Z,99.9
2023-03-11T19:56:02.784Z,99.9
2023-03-11T20:02:11.737Z,99.9
2023-03-11T20:18:29.953Z,99.9
2023-03-11T20:20:31.852Z,99.9
2023-03-11T20:21:34.336Z,99.9
2023-03-11T20:23:36.219Z,99.9
2023-03-11T20:25:38.087Z,99.9
2023-03-11T20:27:39.916Z,99.9
2023-03-11T20:29:45.109Z,99.9
2023-03-11T20:33:48.774Z,99.9
2023-03-11T20:35:50.662Z,99.9
2023-03-11T20:37:52.527Z,99.9
2023-03-11T20:39:54.293Z,99.9
2023-03-11T20:41:56.186Z,99.9
2023-03-11T20:44:01.232Z,99.9
2023-03-11T20:46:03.108Z,99.9
2023-03-11T20:52:08.703Z,99.9
2023-03-11T20:54:10.560Z,99.9
2023-03-11T20:56:12.411Z,99.9
2023-03-11T20:58:17.489Z,99.9
2023-03-11T21:02:21.113Z,99.9
2023-03-11T21:04:23.021Z,99.9
2023-03-11T21:17:41.349Z,99.9
2023-03-11T21:19:43.141Z,99.9
2023-03-11T22:08:40.297Z,99.9
2023-03-11T22:12:44.130Z,99.9
2023-03-11T22:15:48.346Z,99.9
2023-03-11T22:17:50.235Z,99.9
2023-03-11T22:19:52.150Z,99.9
2023-03-11T22:26:00.708Z,99.9
2023-03-11T22:28:02.582Z,99.9
2023-03-11T22:34:08.097Z,99.9
2023-03-11T22:36:13.286Z,99.9
2023-03-11T22:38:15.044Z,99.9
2023-03-11T22:40:16.900Z,99.9
2023-03-11T22:42:18.738Z,99.9
2023-03-11T22:44:20.615Z,99.9
2023-03-11T22:46:22.540Z,99.9
2023-03-11T22:48:24.323Z,99.9
2023-03-11T22:50:29.384Z,99.9
2023-03-11T22:52:31.250Z,99.9
2023-03-11T22:54:33.185Z,99.9
2023-03-11T22:56:34.937Z,99.9
2023-03-11T22:58:36.797Z,99.9
2023-03-11T23:00:38.647Z,99.9
2023-03-11T23:02:40.504Z,99.9
2023-03-11T23:04:45.600Z,99.9
2023-03-11T23:06:47.420Z,99.9
2023-03-11T23:08:49.259Z,99.9
2023-03-11T23:11:18.130Z,99.9
2023-03-11T23:19:28.737Z,99.9
2023-03-11T23:25:34.324Z,99.9
2023-03-11T23:37:48.653Z,99.9
2023-03-11T23:39:50.511Z,99.9
2023-03-11T23:41:52.358Z,99.9
2023-03-11T23:43:54.219Z,99.9
2023-03-11T23:45:59.368Z,99.9
2023-03-11T23:50:03.016Z,99.9
2023-03-11T23:52:04.902Z,99.9
2023-03-11T23:56:08.564Z,99.9
2023-03-11T23:58:10.460Z,99.9
